Terminal Aerodrome Forecast
Issued by NWS Portland, OR

Home | Current Version | Previous Version | Text Only | Print | Product List | Glossary On
Versions: 1 2 3 4 5 6 7 8 9 10 11 12 13 14 15 16 17 18 19 20 21 22 23 24 25 26
000
FTUS46 KPQR 231130
TAFHIO
TAF
KHIO 231130Z 2312/2412 14003KT P6SM VCSH OVC025
     FM231800 VRB02KT P6SM BKN025 BKN035
     FM232100 29006KT P6SM SCT025 BKN035
     FM240300 32008KT P6SM SCT030 BKN250
     FM240600 VRB02KT P6SM SCT250=

USA.gov is the U.S. government's official web portal to all federal, state and local government web resources and services.